createdAt,value
2017-08-19T00:00:56.691Z,100493.12
2017-08-19T00:03:24.620Z,100494.70
2017-08-19T00:05:52.527Z,100494.74
2017-08-19T00:08:20.427Z,100496.03
2017-08-19T00:10:48.460Z,100502.20
2017-08-19T00:13:16.368Z,100516.45
2017-08-19T00:15:44.263Z,100520.56
2017-08-19T00:18:12.189Z,100527.63
2017-08-19T00:20:40.100Z,100527.47
2017-08-19T00:23:08.006Z,100526.62
2017-08-19T00:25:35.907Z,100528.01
2017-08-19T00:28:03.934Z,100541.17
2017-08-19T00:30:31.826Z,100541.23
2017-08-19T00:33:00.146Z,100539.94
2017-08-19T00:35:28.050Z,100538.61
2017-08-19T00:37:55.957Z,100540.86
2017-08-19T00:40:23.857Z,100551.31
2017-08-19T00:42:51.754Z,100550.62
2017-08-19T00:45:20.039Z,100544.33
2017-08-19T00:47:47.952Z,100538.61
2017-08-19T00:50:15.855Z,100529.06
2017-08-19T00:52:43.784Z,100521.43
2017-08-19T00:55:11.687Z,100526.76
2017-08-19T00:57:39.590Z,100526.67
2017-08-19T01:00:07.490Z,100523.62
2017-08-19T01:02:35.411Z,100530.40
2017-08-19T01:05:03.391Z,100530.95
2017-08-19T01:07:31.302Z,100538.39
2017-08-19T01:09:59.223Z,100536.62
2017-08-19T01:12:27.547Z,100539.03
2017-08-19T01:14:55.437Z,100542.11
2017-08-19T01:17:23.344Z,100539.39
2017-08-19T01:19:51.868Z,100539.45
2017-08-19T01:22:19.768Z,100545.11
2017-08-19T01:24:47.817Z,100548.20
2017-08-19T01:27:15.710Z,100550.24
2017-08-19T01:29:43.628Z,100555.14
2017-08-19T01:32:11.554Z,100555.22
2017-08-19T01:34:39.631Z,100559.98
2017-08-19T01:37:07.540Z,100554.16
2017-08-19T01:39:35.430Z,100559.94
2017-08-19T01:42:03.336Z,100563.27
2017-08-19T01:44:31.252Z,100575.40
2017-08-19T01:46:59.431Z,100573.69
2017-08-19T01:49:27.335Z,100572.01
2017-08-19T01:51:55.405Z,100570.20
2017-08-19T01:54:23.303Z,100577.36
2017-08-19T01:56:51.207Z,100577.16
2017-08-19T01:59:19.128Z,100578.45
2017-08-19T02:01:47.033Z,100566.30
2017-08-19T02:04:14.942Z,100565.56
2017-08-19T02:06:42.833Z,100573.06
2017-08-19T02:09:10.744Z,100578.84
2017-08-19T02:11:38.741Z,100577.62
2017-08-19T02:14:06.859Z,100582.98
2017-08-19T02:16:34.758Z,100584.39
2017-08-19T02:19:02.687Z,100590.11
2017-08-19T02:21:30.912Z,100587.61
2017-08-19T02:23:58.811Z,100592.05
2017-08-19T02:26:26.716Z,100586.34
2017-08-19T02:28:54.628Z,100589.17
2017-08-19T02:31:22.522Z,100596.16
2017-08-19T02:33:50.427Z,100591.77
2017-08-19T02:36:18.335Z,100591.42
2017-08-19T02:38:46.441Z,100591.88
2017-08-19T02:41:14.337Z,100590.11
2017-08-19T02:43:42.244Z,100584.98
2017-08-19T02:46:10.157Z,100589.84
2017-08-19T02:48:38.065Z,100588.47
2017-08-19T02:51:05.980Z,100585.33
2017-08-19T02:53:34.216Z,100589.83
2017-08-19T02:56:02.447Z,100588.48
2017-08-19T02:58:30.361Z,100593.04
2017-08-19T03:00:58.250Z,100601.02
2017-08-19T03:03:26.168Z,100599.73
2017-08-19T03:05:54.061Z,100597.45
2017-08-19T03:08:21.966Z,100598.84
2017-08-19T03:10:49.866Z,100600.52
2017-08-19T03:13:17.781Z,100613.17
2017-08-19T03:15:45.692Z,100623.46
2017-08-19T03:18:13.976Z,100632.64
2017-08-19T03:20:41.874Z,100638.91
2017-08-19T03:23:09.771Z,100642.41
2017-08-19T03:25:37.688Z,100651.17
2017-08-19T03:28:05.591Z,100647.93
2017-08-19T03:30:33.504Z,100652.29
2017-08-19T03:33:01.404Z,100657.56
2017-08-19T03:35:29.318Z,100655.02
2017-08-19T03:37:57.235Z,100655.38
2017-08-19T03:40:25.140Z,100650.39
2017-08-19T03:42:53.047Z,100654.41
2017-08-19T03:45:20.954Z,100663.50
2017-08-19T03:47:48.863Z,100665.35
2017-08-19T03:50:16.764Z,100669.59
2017-08-19T03:52:44.672Z,100668.59
2017-08-19T03:55:13.007Z,100665.56
2017-08-19T03:57:40.912Z,100669.37
2017-08-19T04:00:08.802Z,100669.99
2017-08-19T04:02:36.720Z,100675.39
2017-08-19T04:05:04.624Z,100682.42
2017-08-19T04:07:32.846Z,100696.16
2017-08-19T04:10:00.830Z,100693.11
2017-08-19T04:12:28.726Z,100696.25
2017-08-19T04:14:56.626Z,100693.71
2017-08-19T04:17:24.535Z,100704.55
2017-08-19T04:19:52.452Z,100707.51
2017-08-19T04:22:20.367Z,100714.59
2017-08-19T04:24:48.555Z,100719.72
2017-08-19T04:27:16.468Z,100717.06
2017-08-19T04:29:44.374Z,100705.69
2017-08-19T04:32:12.310Z,100711.33
2017-08-19T04:34:40.229Z,100715.14
2017-08-19T04:37:08.144Z,100726.36
2017-08-19T04:39:36.052Z,100723.02
2017-08-19T04:42:04.339Z,100730.67
2017-08-19T04:44:32.248Z,100730.12
2017-08-19T04:47:00.142Z,100730.66
2017-08-19T04:49:28.286Z,100730.86
2017-08-19T04:51:56.200Z,100741.92
2017-08-19T04:54:24.102Z,100742.08
2017-08-19T04:56:52.060Z,100740.42
2017-08-19T04:59:20.126Z,100742.47
2017-08-19T05:01:48.029Z,100746.19
2017-08-19T05:04:15.932Z,100747.61
2017-08-19T05:06:43.834Z,100750.95
2017-08-19T05:09:11.730Z,100755.30
2017-08-19T05:11:39.631Z,100751.59
2017-08-19T05:14:07.548Z,100762.95
2017-08-19T05:16:35.711Z,100762.59
2017-08-19T05:19:03.684Z,100765.66
2017-08-19T05:21:31.578Z,100765.22
2017-08-19T05:23:59.496Z,100768.55
2017-08-19T05:26:27.400Z,100763.33
2017-08-19T05:28:55.320Z,100760.34
2017-08-19T05:31:23.226Z,100767.88
2017-08-19T05:33:51.167Z,100762.00
2017-08-19T05:36:19.072Z,100770.73
2017-08-19T05:38:47.426Z,100771.05
2017-08-19T05:41:15.326Z,100773.25
2017-08-19T05:43:43.240Z,100781.64
2017-08-19T05:46:11.137Z,100783.50
2017-08-19T05:48:39.044Z,100788.42
2017-08-19T05:51:06.956Z,100786.93
2017-08-19T05:53:34.855Z,100784.52
2017-08-19T05:56:02.773Z,100792.91
2017-08-19T05:58:30.676Z,100790.72
2017-08-19T06:00:58.657Z,100800.08
2017-08-19T06:03:26.564Z,100801.73
2017-08-19T06:05:54.596Z,100801.69
2017-08-19T06:08:22.488Z,100806.67
2017-08-19T06:10:50.388Z,100805.86
2017-08-19T06:13:18.299Z,100804.61
2017-08-19T06:15:46.190Z,100814.30
2017-08-19T06:18:14.252Z,100813.81
2017-08-19T06:20:42.145Z,100818.68
2017-08-19T06:23:10.052Z,100822.29
2017-08-19T06:25:37.959Z,100833.55
2017-08-19T06:28:05.867Z,100825.97
2017-08-19T06:30:33.999Z,100834.20
2017-08-19T06:33:01.900Z,100839.79
2017-08-19T06:35:29.794Z,100847.42
2017-08-19T06:37:57.702Z,100853.61
2017-08-19T06:40:25.672Z,100855.61
2017-08-19T06:42:53.883Z,100851.51
2017-08-19T06:45:21.788Z,100857.03
2017-08-19T06:47:49.689Z,100860.48
2017-08-19T06:50:17.709Z,100865.22
2017-08-19T06:52:45.927Z,100864.17
2017-08-19T06:55:13.831Z,100876.14
2017-08-19T06:57:41.739Z,100870.77
2017-08-19T07:00:09.642Z,100875.52
2017-08-19T07:02:37.546Z,100868.44
2017-08-19T07:05:05.871Z,100875.69
2017-08-19T07:07:33.762Z,100875.69
2017-08-19T07:10:01.662Z,100869.43
2017-08-19T07:12:29.584Z,100878.68
2017-08-19T07:14:57.490Z,100886.78
2017-08-19T07:17:25.404Z,100878.09
2017-08-19T07:19:53.312Z,100882.62
2017-08-19T07:22:21.229Z,100888.42
2017-08-19T07:24:49.119Z,100880.31
2017-08-19T07:27:17.442Z,100883.98
2017-08-19T07:29:45.348Z,100887.53
2017-08-19T07:32:13.251Z,100891.26
2017-08-19T07:34:41.378Z,100897.98
2017-08-19T07:37:09.270Z,100900.95
2017-08-19T07:39:37.186Z,100908.30
2017-08-19T07:42:05.082Z,100909.11
2017-08-19T07:44:32.996Z,100920.67
2017-08-19T07:47:00.900Z,100913.38
2017-08-19T07:49:28.822Z,100923.05
2017-08-19T07:51:56.718Z,100925.82
2017-08-19T07:54:24.618Z,100922.81
2017-08-19T07:56:52.510Z,100922.14
2017-08-19T07:59:20.604Z,100931.03
2017-08-19T08:01:48.633Z,100938.78
2017-08-19T08:04:16.532Z,100936.78
2017-08-19T08:06:44.435Z,100949.37
2017-08-19T08:09:12.335Z,100947.97
2017-08-19T08:11:40.250Z,100954.97
2017-08-19T08:14:08.155Z,100956.34
2017-08-19T08:16:36.067Z,100950.09
2017-08-19T08:19:03.983Z,100958.41
2017-08-19T08:21:32.228Z,100956.70
2017-08-19T08:24:00.256Z,100960.73
2017-08-19T08:26:28.167Z,100955.52
2017-08-19T08:28:56.496Z,100964.62
2017-08-19T08:31:24.886Z,100959.20
2017-08-19T08:33:55.487Z,100952.90
2017-08-19T08:36:25.275Z,100960.31
2017-08-19T08:38:53.726Z,100956.41
2017-08-19T08:41:22.641Z,100960.17
2017-08-19T08:43:50.891Z,100965.38
2017-08-19T08:46:18.789Z,100978.14
2017-08-19T08:48:46.683Z,100970.62
2017-08-19T08:51:14.594Z,100979.97
2017-08-19T08:53:42.490Z,100984.45
2017-08-19T08:56:10.416Z,100987.34
2017-08-19T08:58:38.318Z,100988.27
2017-08-19T09:01:06.240Z,100989.19
2017-08-19T09:03:35.006Z,100990.81
2017-08-19T09:06:03.222Z,100984.23
2017-08-19T09:08:31.118Z,100975.25
2017-08-19T09:10:59.027Z,100963.47
2017-08-19T09:13:26.946Z,100967.42
2017-08-19T09:15:54.861Z,100967.94
2017-08-19T09:18:22.780Z,100972.05
2017-08-19T09:20:50.688Z,100969.05
2017-08-19T09:23:18.605Z,100973.67
2017-08-19T09:25:46.498Z,100967.87
2017-08-19T09:28:14.422Z,100970.47
2017-08-19T09:30:42.606Z,100967.88
2017-08-19T09:33:10.736Z,100968.61
2017-08-19T09:35:38.647Z,100973.16
2017-08-19T09:38:06.551Z,100977.59
2017-08-19T09:40:34.467Z,100981.36
2017-08-19T09:43:02.656Z,100972.64
2017-08-19T09:45:30.800Z,100979.59
2017-08-19T09:47:59.003Z,100991.23
2017-08-19T09:50:27.040Z,100990.50
2017-08-19T09:52:54.939Z,100990.87
2017-08-19T09:55:22.837Z,101004.57
2017-08-19T09:57:50.744Z,101006.37
2017-08-19T10:00:18.637Z,101010.84
2017-08-19T10:02:46.546Z,101002.17
2017-08-19T10:05:14.468Z,101015.14
2017-08-19T10:07:42.387Z,101009.41
2017-08-19T10:13:11.696Z,100991.86
2017-08-19T10:15:39.599Z,100997.61
2017-08-19T10:18:07.498Z,101000.99
2017-08-19T10:20:35.407Z,100983.69
2017-08-19T10:23:03.324Z,100977.83
2017-08-19T10:25:31.228Z,100980.88
2017-08-19T10:27:59.344Z,100978.53
2017-08-19T10:30:27.242Z,100983.47
2017-08-19T10:32:55.147Z,100986.19
2017-08-19T10:35:23.068Z,100983.42
2017-08-19T10:37:50.976Z,100979.94
2017-08-19T10:40:18.896Z,100972.63
2017-08-19T10:42:46.795Z,100985.50
2017-08-19T10:45:14.698Z,100979.95
2017-08-19T10:47:42.608Z,100983.06
2017-08-19T10:50:10.637Z,100981.69
2017-08-19T10:52:38.537Z,100985.25
2017-08-19T10:55:06.611Z,100973.18
2017-08-19T10:57:34.548Z,100970.58
2017-08-19T11:00:02.442Z,100965.28
2017-08-19T11:02:30.355Z,100953.90
2017-08-19T11:04:58.255Z,100954.65
2017-08-19T11:07:26.176Z,100953.98
2017-08-19T11:09:54.084Z,100947.47
2017-08-19T11:12:22.057Z,100943.59
2017-08-19T11:14:49.949Z,100947.24
2017-08-19T11:17:17.854Z,100946.91
2017-08-19T11:19:45.756Z,100946.25
2017-08-19T11:22:13.884Z,100944.13
2017-08-19T11:24:41.785Z,100954.80
2017-08-19T11:27:09.960Z,100955.20
2017-08-19T11:29:37.879Z,100961.55
2017-08-19T11:32:05.779Z,100961.39
2017-08-19T11:34:33.695Z,100964.05
2017-08-19T11:37:01.606Z,100970.98
2017-08-19T11:39:29.515Z,100966.14
2017-08-19T11:41:57.410Z,100963.81
2017-08-19T11:44:25.325Z,100963.94
2017-08-19T11:46:53.227Z,100964.23
2017-08-19T11:49:21.145Z,100970.27
2017-08-19T11:51:49.057Z,100967.92
2017-08-19T11:54:17.175Z,100977.03
2017-08-19T11:56:45.072Z,100982.55
2017-08-19T11:59:13.265Z,100982.31
2017-08-19T12:01:41.171Z,100979.06
2017-08-19T12:04:09.081Z,100982.61
2017-08-19T12:06:36.995Z,100979.55
2017-08-19T12:09:04.895Z,100974.59
2017-08-19T12:11:32.812Z,100982.67
2017-08-19T12:14:00.719Z,100977.16
2017-08-19T12:16:28.712Z,100977.30
2017-08-19T12:18:56.611Z,100978.11
2017-08-19T12:21:24.852Z,100982.00
2017-08-19T12:23:52.750Z,100979.02
2017-08-19T12:26:20.653Z,100984.05
2017-08-19T12:28:48.558Z,100972.70
2017-08-19T12:31:16.459Z,100975.59
2017-08-19T12:33:44.376Z,100978.50
2017-08-19T12:36:12.284Z,100979.32
2017-08-19T12:38:40.192Z,100980.64
2017-08-19T12:41:08.105Z,100978.87
2017-08-19T12:43:36.166Z,100975.84
2017-08-19T12:46:04.066Z,100975.69
2017-08-19T12:48:31.976Z,100978.48
2017-08-19T12:50:59.878Z,100979.70
2017-08-19T12:53:27.783Z,100983.08
2017-08-19T12:55:55.687Z,100991.88
2017-08-19T12:58:23.687Z,100984.25
2017-08-19T13:00:51.608Z,100986.73
2017-08-19T13:03:19.628Z,100980.34
2017-08-19T13:05:47.687Z,100993.96
2017-08-19T13:08:15.622Z,100995.05
2017-08-19T13:10:43.538Z,100988.92
2017-08-19T13:13:11.441Z,100996.23
2017-08-19T13:15:39.348Z,100993.89
2017-08-19T13:18:07.449Z,100998.80
2017-08-19T13:20:35.351Z,100989.95
2017-08-19T13:23:03.246Z,100982.34
2017-08-19T13:25:31.163Z,100983.45
2017-08-19T13:27:59.074Z,100981.55
2017-08-19T13:30:26.983Z,100985.08
2017-08-19T13:32:54.886Z,100983.42
2017-08-19T13:35:23.123Z,100988.23
2017-08-19T13:37:51.032Z,100988.13
2017-08-19T13:40:18.940Z,100978.39
2017-08-19T13:42:46.852Z,100985.34
2017-08-19T13:45:15.054Z,100979.11
2017-08-19T13:47:42.972Z,100977.77
2017-08-19T13:50:10.870Z,100987.59
2017-08-19T13:52:38.770Z,100998.12
2017-08-19T13:55:06.679Z,100996.14
2017-08-19T13:57:34.616Z,100996.14
2017-08-19T14:00:02.763Z,100999.06
2017-08-19T14:02:30.662Z,100998.22
2017-08-19T14:04:58.579Z,100992.52
2017-08-19T14:07:26.493Z,101011.25
2017-08-19T14:09:54.399Z,101001.69
2017-08-19T14:12:22.303Z,101001.81
2017-08-19T14:14:50.221Z,101001.48
2017-08-19T14:17:18.119Z,101009.82
2017-08-19T14:19:46.323Z,101007.55
2017-08-19T14:22:14.227Z,101010.63
2017-08-19T14:24:42.338Z,101006.69
2017-08-19T14:27:10.243Z,101008.00
2017-08-19T14:29:38.155Z,101007.89
2017-08-19T14:32:06.230Z,101008.92
2017-08-19T14:34:34.125Z,101005.63
2017-08-19T14:37:02.035Z,101009.02
2017-08-19T14:39:29.934Z,101011.59
2017-08-19T14:41:58.003Z,101013.65
2017-08-19T14:44:25.913Z,101009.00
2017-08-19T14:46:53.811Z,101007.34
2017-08-19T14:49:21.727Z,101017.59
2017-08-19T14:51:49.637Z,101011.36
2017-08-19T14:54:17.543Z,101005.44
2017-08-19T14:56:45.433Z,101005.14
2017-08-19T14:59:13.355Z,101013.23
2017-08-19T15:01:41.256Z,101016.09
2017-08-19T15:04:09.162Z,101008.70
2017-08-19T15:06:37.080Z,101011.44
2017-08-19T15:09:05.513Z,101011.64
2017-08-19T15:11:33.439Z,101005.88
2017-08-19T15:14:01.356Z,101013.48
2017-08-19T15:16:29.285Z,101010.28
2017-08-19T15:18:57.178Z,101009.50
2017-08-19T15:21:25.127Z,101018.25
2017-08-19T15:23:53.021Z,101000.91
2017-08-19T15:26:20.925Z,101005.07
2017-08-19T15:28:48.826Z,101009.22
2017-08-19T15:31:16.890Z,101007.73
2017-08-19T15:33:44.791Z,101013.35
2017-08-19T15:36:12.692Z,101002.98
2017-08-19T15:38:40.615Z,101010.29
2017-08-19T15:41:08.520Z,101008.95
2017-08-19T15:43:36.446Z,101010.14
2017-08-19T15:46:04.366Z,101010.51
2017-08-19T15:48:32.289Z,101012.95
2017-08-19T15:51:00.195Z,101011.36
2017-08-19T15:53:28.121Z,101005.56
2017-08-19T15:55:56.013Z,100998.52
2017-08-19T15:58:23.927Z,101005.48
2017-08-19T16:00:51.830Z,100999.95
2017-08-19T16:03:19.896Z,101006.38
2017-08-19T16:05:47.796Z,101004.77
2017-08-19T16:08:15.694Z,101001.44
2017-08-19T16:10:43.612Z,101002.37
2017-08-19T16:13:11.572Z,101002.77
2017-08-19T16:15:39.484Z,100999.23
2017-08-19T16:18:07.382Z,100997.01
2017-08-19T16:20:35.295Z,101012.75
2017-08-19T16:23:03.204Z,100997.59
2017-08-19T16:25:31.124Z,101004.05
2017-08-19T16:27:59.032Z,101009.18
2017-08-19T16:30:26.939Z,101010.45
2017-08-19T16:32:54.844Z,101009.95
2017-08-19T16:35:22.769Z,101012.97
2017-08-19T16:37:50.670Z,101007.52
2017-08-19T16:40:18.720Z,101002.30
2017-08-19T16:42:46.618Z,101006.97
2017-08-19T16:45:14.528Z,101009.23
2017-08-19T16:47:42.538Z,101001.38
2017-08-19T16:50:10.438Z,101003.78
2017-08-19T16:52:38.356Z,101010.22
2017-08-19T16:55:06.267Z,101007.07
2017-08-19T16:57:34.176Z,101014.42
2017-08-19T17:00:02.093Z,101007.75
2017-08-19T17:02:30.292Z,101011.19
2017-08-19T17:04:58.414Z,101012.22
2017-08-19T17:07:26.315Z,101016.25
2017-08-19T17:09:54.212Z,101017.91
2017-08-19T17:12:22.114Z,101023.16
2017-08-19T17:14:50.087Z,101024.09
2017-08-19T17:17:18.316Z,101033.50
2017-08-19T17:19:46.222Z,101032.53
2017-08-19T17:22:14.129Z,101038.50
2017-08-19T17:24:42.076Z,101037.72
2017-08-19T17:27:09.993Z,101047.02
2017-08-19T17:29:37.925Z,101052.92
2017-08-19T17:32:05.986Z,101051.83
2017-08-19T17:34:33.895Z,101050.16
2017-08-19T17:37:01.804Z,101055.48
2017-08-19T17:39:29.717Z,101051.72
2017-08-19T17:41:57.631Z,101057.58
2017-08-19T17:44:25.630Z,101059.77
2017-08-19T17:46:53.540Z,101060.05
2017-08-19T17:49:21.750Z,101061.98
2017-08-19T17:51:49.647Z,101071.20
2017-08-19T17:54:17.556Z,101066.50
2017-08-19T17:56:45.476Z,101067.02
2017-08-19T17:59:13.384Z,101070.69
2017-08-19T18:01:41.290Z,101075.17
2017-08-19T18:04:09.196Z,101075.09
2017-08-19T18:06:37.359Z,101072.39
2017-08-19T18:09:05.263Z,101071.33
2017-08-19T18:11:33.159Z,101076.56
2017-08-19T18:14:01.077Z,101076.09
2017-08-19T18:16:28.993Z,101079.09
2017-08-19T18:18:56.894Z,101079.62
2017-08-19T18:21:24.799Z,101085.34
2017-08-19T18:23:52.708Z,101081.95
2017-08-19T18:26:20.620Z,101077.41
2017-08-19T18:28:48.531Z,101084.41
2017-08-19T18:31:16.697Z,101087.64
2017-08-19T18:33:44.832Z,101085.95
2017-08-19T18:36:12.741Z,101087.12
2017-08-19T18:38:40.639Z,101091.23
2017-08-19T18:41:08.580Z,101088.37
2017-08-19T18:43:36.484Z,101095.91
2017-08-19T18:46:04.401Z,101096.95
2017-08-19T18:48:32.312Z,101096.61
2017-08-19T18:51:00.219Z,101102.34
2017-08-19T18:53:28.114Z,101105.53
2017-08-19T18:55:56.019Z,101101.66
2017-08-19T18:58:23.922Z,101107.86
2017-08-19T19:00:52.082Z,101110.17
2017-08-19T19:03:19.992Z,101112.41
2017-08-19T19:05:47.905Z,101115.56
2017-08-19T19:08:15.814Z,101118.30
2017-08-19T19:10:43.723Z,101112.71
2017-08-19T19:13:11.621Z,101113.02
2017-08-19T19:15:39.522Z,101114.47
2017-08-19T19:18:07.444Z,101113.16
2017-08-19T19:20:35.693Z,101111.53
2017-08-19T19:23:03.618Z,101108.07
2017-08-19T19:25:31.527Z,101109.42
2017-08-19T19:27:59.550Z,101114.31
2017-08-19T19:30:27.447Z,101115.17
2017-08-19T19:32:55.352Z,101117.88
2017-08-19T19:35:23.259Z,101120.55
2017-08-19T19:37:51.172Z,101112.73
2017-08-19T19:40:19.088Z,101116.32
2017-08-19T19:42:46.981Z,101121.63
2017-08-19T19:45:14.899Z,101116.81
2017-08-19T19:47:42.805Z,101114.21
2017-08-19T19:50:10.710Z,101121.32
2017-08-19T19:52:38.617Z,101123.61
2017-08-19T19:55:06.533Z,101133.30
2017-08-19T19:57:34.434Z,101138.59
2017-08-19T20:00:02.372Z,101144.39
2017-08-19T20:02:30.287Z,101145.31
2017-08-19T20:04:58.195Z,101152.45
2017-08-19T20:07:26.116Z,101161.16
2017-08-19T20:09:54.082Z,101163.90
2017-08-19T20:12:22.003Z,101166.05
2017-08-19T20:14:49.894Z,101167.44
2017-08-19T20:17:17.810Z,101164.76
2017-08-19T20:19:45.707Z,101169.67
2017-08-19T20:22:13.648Z,101173.20
2017-08-19T20:24:41.570Z,101174.12
2017-08-19T20:27:09.508Z,101176.80
2017-08-19T20:29:37.440Z,101179.52
2017-08-19T20:32:05.355Z,101186.94
2017-08-19T20:34:33.279Z,101192.73
2017-08-19T20:37:01.178Z,101194.09
2017-08-19T20:39:29.102Z,101188.81
2017-08-19T20:41:57.012Z,101188.38
2017-08-19T20:44:24.951Z,101188.34
2017-08-19T20:46:52.866Z,101189.69
2017-08-19T20:49:20.780Z,101195.92
2017-08-19T20:51:48.685Z,101204.27
2017-08-19T20:54:16.910Z,101206.08
2017-08-19T20:56:44.871Z,101206.05
2017-08-19T20:59:12.776Z,101206.51
2017-08-19T21:01:40.682Z,101197.25
2017-08-19T21:04:08.609Z,101195.85
2017-08-19T21:06:36.517Z,101188.38
2017-08-19T21:09:04.426Z,101180.56
2017-08-19T21:11:32.335Z,101176.59
2017-08-19T21:14:00.255Z,101171.77
2017-08-19T21:16:28.158Z,101170.06
2017-08-19T21:18:56.070Z,101163.92
2017-08-19T21:21:23.983Z,101162.63
2017-08-19T21:23:52.096Z,101156.56
2017-08-19T21:26:20.004Z,101160.95
2017-08-19T21:28:47.991Z,101160.52
2017-08-19T21:31:15.897Z,101162.34
2017-08-19T21:33:43.826Z,101161.86
2017-08-19T21:36:11.739Z,101164.05
2017-08-19T21:38:39.638Z,101161.91
2017-08-19T21:41:07.542Z,101168.96
2017-08-19T21:43:35.454Z,101168.52
2017-08-19T21:46:03.359Z,101168.95
2017-08-19T21:48:31.288Z,101169.84
2017-08-19T21:50:59.230Z,101174.66
2017-08-19T21:53:27.364Z,101182.13
2017-08-19T21:55:55.297Z,101175.92
2017-08-19T21:58:23.221Z,101173.78
2017-08-19T22:00:51.122Z,101179.48
2017-08-19T22:03:19.026Z,101173.34
2017-08-19T22:05:46.971Z,101182.56
2017-08-19T22:08:14.878Z,101179.05
2017-08-19T22:10:42.788Z,101181.19
2017-08-19T22:13:10.690Z,101177.67
2017-08-19T22:15:38.828Z,101179.86
2017-08-19T22:18:06.767Z,101173.25
2017-08-19T22:20:34.662Z,101175.38
2017-08-19T22:23:02.572Z,101175.38
2017-08-19T22:25:30.469Z,101174.95
2017-08-19T22:27:58.375Z,101173.20
2017-08-19T22:30:26.297Z,101172.33
2017-08-19T22:32:54.212Z,101176.77
2017-08-19T22:35:22.119Z,101180.73
2017-08-19T22:37:50.014Z,101182.08
2017-08-19T22:40:18.026Z,101187.35
2017-08-19T22:42:45.994Z,101179.08
2017-08-19T22:45:13.898Z,101177.32
2017-08-19T22:47:41.852Z,101189.19
2017-08-19T22:50:09.796Z,101173.82
2017-08-19T22:52:37.708Z,101170.31
2017-08-19T22:55:05.608Z,101179.15
2017-08-19T22:57:33.517Z,101187.06
2017-08-19T23:00:01.424Z,101188.38
2017-08-19T23:02:29.325Z,101183.11
2017-08-19T23:04:57.227Z,101180.92
2017-08-19T23:07:25.131Z,101173.91
2017-08-19T23:09:53.026Z,101169.51
2017-08-19T23:12:20.940Z,101171.27
2017-08-19T23:14:48.895Z,101178.73
2017-08-19T23:17:16.817Z,101173.90
2017-08-19T23:19:44.714Z,101173.02
2017-08-19T23:22:12.618Z,101168.64
2017-08-19T23:24:40.514Z,101171.27
2017-08-19T23:27:08.438Z,101168.25
2017-08-19T23:29:36.334Z,101170.44
2017-08-19T23:32:04.270Z,101173.95
2017-08-19T23:34:32.182Z,101176.16
2017-08-19T23:37:00.078Z,101172.67
2017-08-19T23:39:28.330Z,101177.98
2017-08-19T23:41:56.231Z,101178.86
2017-08-19T23:44:24.134Z,101176.23
2017-08-19T23:46:52.039Z,101185.48
2017-08-19T23:49:19.946Z,101181.97
2017-08-19T23:51:47.840Z,101179.77
2017-08-19T23:54:16.054Z,101185.48
2017-08-19T23:56:43.954Z,101188.55
2017-08-19T23:59:11.854Z,101184.16
